createdAt,value
2018-12-26T00:01:47.795Z,13.13
2018-12-26T00:04:15.864Z,7.93
2018-12-26T00:06:43.945Z,8.30
2018-12-26T00:09:12.123Z,7.63
2018-12-26T00:11:40.322Z,9.97
2018-12-26T00:14:08.568Z,7.93
2018-12-26T00:16:37.171Z,8.43
2018-12-26T00:19:05.419Z,10.17
2018-12-26T00:21:33.648Z,9.20
2018-12-26T00:24:01.908Z,6.37
2018-12-26T00:26:29.930Z,8.97
2018-12-26T00:28:58.098Z,9.43
2018-12-26T00:31:26.155Z,8.10
2018-12-26T00:33:54.319Z,10.67
2018-12-26T00:36:22.423Z,9.10
2018-12-26T00:38:50.575Z,7.83
2018-12-26T00:41:18.640Z,7.83
2018-12-26T00:43:46.823Z,11.37
2018-12-26T00:46:14.900Z,7.23
2018-12-26T00:48:43.100Z,5.13
2018-12-26T00:51:11.289Z,6.07
2018-12-26T00:53:40.572Z,5.33
2018-12-26T00:56:10.523Z,2.83
2018-12-26T00:58:38.840Z,6.37
2018-12-26T01:01:06.944Z,5.07
2018-12-26T01:03:36.030Z,6.27
2018-12-26T01:06:04.206Z,3.57
2018-12-26T01:08:32.463Z,2.77
2018-12-26T01:11:00.717Z,4.70
2018-12-26T01:13:28.956Z,4.37
2018-12-26T01:15:57.180Z,2.47
2018-12-26T01:18:25.373Z,1.20
2018-12-26T01:20:53.561Z,2.33
2018-12-26T01:23:21.735Z,1.93
2018-12-26T01:25:54.569Z,3.57
2018-12-26T01:28:22.716Z,2.90
2018-12-26T01:30:51.011Z,1.60
2018-12-26T01:33:19.217Z,1.60
2018-12-26T01:35:47.455Z,2.33
2018-12-26T01:38:16.717Z,3.77
2018-12-26T01:40:44.976Z,1.37
2018-12-26T01:43:13.222Z,2.20
2018-12-26T01:45:41.552Z,1.83
2018-12-26T01:48:09.793Z,3.13
2018-12-26T01:50:38.293Z,2.60
2018-12-26T01:53:06.397Z,3.20
2018-12-26T01:55:34.546Z,2.63
2018-12-26T01:58:03.004Z,3.23
2018-12-26T02:00:31.097Z,3.20
2018-12-26T02:02:59.188Z,5.10
2018-12-26T02:05:27.544Z,2.67
2018-12-26T02:07:55.652Z,3.57
2018-12-26T02:10:23.844Z,3.37
2018-12-26T02:12:52.357Z,2.03
2018-12-26T02:15:20.487Z,3.20
2018-12-26T02:17:48.832Z,2.50
2018-12-26T02:20:17.024Z,1.73
2018-12-26T02:22:45.617Z,3.23
2018-12-26T02:25:13.829Z,2.67
2018-12-26T02:27:42.095Z,2.17
2018-12-26T02:30:10.289Z,2.63
2018-12-26T02:32:39.512Z,3.37
2018-12-26T02:35:07.756Z,3.73
2018-12-26T02:37:36.023Z,2.50
2018-12-26T02:40:04.920Z,2.80
2018-12-26T02:42:33.454Z,6.50
2018-12-26T02:45:02.016Z,4.83
2018-12-26T02:47:30.298Z,5.40
2018-12-26T02:49:58.480Z,3.13
2018-12-26T02:52:26.633Z,4.67
2018-12-26T02:54:54.926Z,2.77
2018-12-26T02:57:23.183Z,4.17
2018-12-26T02:59:51.476Z,5.80
2018-12-26T03:02:19.741Z,3.57
2018-12-26T03:04:47.916Z,4.77
2018-12-26T03:07:16.039Z,3.83
2018-12-26T03:09:44.190Z,3.07
2018-12-26T03:12:12.317Z,1.80
2018-12-26T03:14:40.465Z,4.00
2018-12-26T03:17:08.634Z,3.07
2018-12-26T03:19:36.717Z,1.67
2018-12-26T03:22:04.922Z,4.20
2018-12-26T03:24:32.996Z,3.60
2018-12-26T03:27:01.194Z,4.77
2018-12-26T03:29:29.262Z,5.90
2018-12-26T03:31:57.554Z,1.80
2018-12-26T03:34:25.816Z,2.60
2018-12-26T03:36:54.123Z,3.13
2018-12-26T03:39:22.262Z,6.67
2018-12-26T03:41:50.549Z,3.40
2018-12-26T03:44:19.748Z,3.30
2018-12-26T03:46:48.132Z,2.40
2018-12-26T03:49:16.835Z,5.00
2018-12-26T03:51:45.071Z,4.50
2018-12-26T03:54:13.204Z,3.27
2018-12-26T03:56:41.440Z,2.77
2018-12-26T03:59:09.564Z,2.17
2018-12-26T04:01:37.677Z,2.43
2018-12-26T04:04:05.951Z,2.03
2018-12-26T04:06:34.116Z,2.67
2018-12-26T04:09:02.543Z,3.77
2018-12-26T04:11:31.088Z,4.17
2018-12-26T04:13:59.351Z,1.73
2018-12-26T04:16:27.592Z,2.37
2018-12-26T04:18:56.396Z,4.83
2018-12-26T04:21:25.975Z,3.67
2018-12-26T04:23:54.427Z,1.60
2018-12-26T04:26:22.654Z,1.63
2018-12-26T04:28:50.809Z,1.83
2018-12-26T04:31:19.039Z,3.93
2018-12-26T04:33:47.134Z,4.00
2018-12-26T04:36:15.313Z,2.27
2018-12-26T04:38:43.471Z,3.40
2018-12-26T04:41:11.713Z,4.60
2018-12-26T04:43:39.974Z,5.83
2018-12-26T04:46:08.155Z,2.40
2018-12-26T04:48:36.289Z,3.73
2018-12-26T04:51:04.444Z,1.00
2018-12-26T04:53:32.516Z,3.40
2018-12-26T04:56:01.303Z,2.20
2018-12-26T04:58:29.396Z,4.77
2018-12-26T05:00:57.656Z,1.50
2018-12-26T05:03:27.051Z,1.47
2018-12-26T05:05:55.233Z,3.43
2018-12-26T05:08:25.198Z,2.83
2018-12-26T05:10:53.637Z,1.97
2018-12-26T05:13:22.033Z,4.53
2018-12-26T05:15:50.304Z,8.50
2018-12-26T05:18:18.645Z,3.20
2018-12-26T05:20:46.884Z,4.17
2018-12-26T05:23:15.085Z,4.63
2018-12-26T05:25:43.183Z,2.63
2018-12-26T05:28:11.393Z,3.00
2018-12-26T05:30:40.325Z,3.27
2018-12-26T05:33:08.533Z,2.97
2018-12-26T05:35:36.675Z,3.73
2018-12-26T05:38:05.260Z,1.93
2018-12-26T05:40:33.352Z,4.30
2018-12-26T05:43:01.572Z,2.57
2018-12-26T05:45:29.733Z,3.50
2018-12-26T05:47:57.820Z,4.90
2018-12-26T05:50:26.025Z,4.53
2018-12-26T05:52:55.094Z,4.30
2018-12-26T05:55:23.163Z,3.80
2018-12-26T05:57:51.288Z,3.50
2018-12-26T06:00:19.380Z,5.33
2018-12-26T06:02:47.496Z,3.23
2018-12-26T06:05:15.603Z,3.37
2018-12-26T06:07:43.840Z,4.07
2018-12-26T06:10:11.945Z,6.40
2018-12-26T06:12:40.078Z,3.07
2018-12-26T06:15:08.277Z,3.23
2018-12-26T06:17:36.636Z,5.73
2018-12-26T06:20:04.956Z,4.70
2018-12-26T06:22:33.189Z,3.50
2018-12-26T06:25:01.293Z,2.70
2018-12-26T06:27:29.479Z,2.13
2018-12-26T06:29:57.548Z,4.00
2018-12-26T06:32:25.669Z,1.33
2018-12-26T06:34:53.778Z,1.07
2018-12-26T06:37:21.848Z,2.63
2018-12-26T06:39:51.783Z,1.83
2018-12-26T06:42:19.901Z,2.37
2018-12-26T06:44:48.034Z,2.93
2018-12-26T06:47:16.097Z,5.10
2018-12-26T06:49:45.363Z,2.97
2018-12-26T06:52:13.750Z,3.13
2018-12-26T06:54:41.911Z,6.27
2018-12-26T06:57:09.997Z,1.03
2018-12-26T06:59:38.187Z,2.10
2018-12-26T07:02:06.340Z,2.23
2018-12-26T07:04:34.522Z,2.37
2018-12-26T07:07:02.658Z,2.97
2018-12-26T07:09:30.759Z,1.10
2018-12-26T07:11:58.850Z,2.83
2018-12-26T07:14:27.002Z,3.53
2018-12-26T07:16:55.081Z,1.13
2018-12-26T07:19:23.255Z,0.90
2018-12-26T07:21:51.282Z,2.00
2018-12-26T07:24:19.718Z,1.93
2018-12-26T07:26:47.832Z,3.17
2018-12-26T07:29:16.042Z,1.67
2018-12-26T07:31:44.174Z,6.33
2018-12-26T07:34:12.706Z,1.73
2018-12-26T07:36:40.799Z,5.00
2018-12-26T07:39:08.975Z,6.80
2018-12-26T07:41:37.153Z,10.73
2018-12-26T07:44:05.363Z,13.63
2018-12-26T07:46:33.688Z,6.60
2018-12-26T07:49:02.257Z,11.13
2018-12-26T07:51:30.510Z,7.83
2018-12-26T07:53:58.605Z,7.67
2018-12-26T07:56:26.862Z,7.17
2018-12-26T07:58:55.074Z,10.33
2018-12-26T08:01:23.636Z,9.77
2018-12-26T08:03:51.879Z,9.67
2018-12-26T08:06:20.109Z,9.23
2018-12-26T08:08:48.238Z,10.23
2018-12-26T08:11:16.417Z,18.07
2018-12-26T08:13:44.503Z,24.27
2018-12-26T08:16:12.720Z,22.97
2018-12-26T08:18:40.808Z,20.63
2018-12-26T08:21:09.001Z,13.70
2018-12-26T08:23:37.152Z,15.77
2018-12-26T08:26:05.316Z,16.30
2018-12-26T08:28:33.585Z,14.27
2018-12-26T08:31:01.763Z,14.53
2018-12-26T08:33:30.064Z,10.30
2018-12-26T08:35:58.267Z,12.43
2018-12-26T08:38:28.990Z,13.63
2018-12-26T08:40:57.208Z,14.20
2018-12-26T08:43:25.753Z,16.20
2018-12-26T08:45:53.972Z,16.57
2018-12-26T08:48:22.083Z,14.37
2018-12-26T08:50:50.644Z,16.60
2018-12-26T08:53:19.155Z,17.63
2018-12-26T08:55:47.536Z,19.10
2018-12-26T08:58:15.732Z,19.13
2018-12-26T09:00:44.024Z,20.87
2018-12-26T09:03:12.309Z,14.50
2018-12-26T09:05:40.864Z,13.80
2018-12-26T09:08:09.348Z,15.40
2018-12-26T09:10:37.646Z,14.53
2018-12-26T09:13:06.889Z,17.70
2018-12-26T09:15:35.160Z,13.53
2018-12-26T09:18:04.353Z,11.60
2018-12-26T09:20:32.525Z,18.93
2018-12-26T09:23:00.703Z,17.27
2018-12-26T09:25:29.016Z,12.07
2018-12-26T09:27:57.171Z,9.87
2018-12-26T09:30:26.276Z,8.43
2018-12-26T09:32:54.392Z,11.73
2018-12-26T09:35:22.619Z,4.43
2018-12-26T09:37:50.776Z,2.40
2018-12-26T09:40:19.193Z,3.53
2018-12-26T09:42:47.422Z,3.20
2018-12-26T09:45:15.633Z,3.77
2018-12-26T09:47:43.810Z,2.53
2018-12-26T09:50:12.070Z,2.07
2018-12-26T09:52:40.191Z,4.57
2018-12-26T09:55:08.603Z,4.53
2018-12-26T09:57:37.158Z,6.77
2018-12-26T10:00:06.552Z,2.60
2018-12-26T10:02:34.610Z,3.73
2018-12-26T10:05:04.270Z,2.63
2018-12-26T10:07:32.370Z,3.97
2018-12-26T10:10:00.447Z,1.70
2018-12-26T10:12:28.622Z,2.77
2018-12-26T10:14:57.737Z,3.20
2018-12-26T10:17:25.926Z,3.90
2018-12-26T10:19:54.002Z,3.03
2018-12-26T10:22:22.150Z,3.93
2018-12-26T10:24:50.636Z,2.93
2018-12-26T10:27:18.781Z,6.33
2018-12-26T10:29:47.980Z,2.90
2018-12-26T10:32:16.103Z,4.67
2018-12-26T10:34:44.320Z,2.60
2018-12-26T10:37:12.517Z,2.47
2018-12-26T10:39:41.556Z,3.30
2018-12-26T10:42:09.709Z,3.77
2018-12-26T10:44:38.268Z,4.40
2018-12-26T10:47:06.567Z,4.43
2018-12-26T10:49:34.800Z,3.90
2018-12-26T10:52:03.256Z,3.17
2018-12-26T10:54:31.556Z,5.73
2018-12-26T10:56:59.660Z,4.40
2018-12-26T10:59:28.165Z,3.47
2018-12-26T11:01:56.357Z,4.43
2018-12-26T11:04:26.249Z,1.97
2018-12-26T11:06:54.556Z,2.83
2018-12-26T11:09:23.008Z,3.67
2018-12-26T11:11:51.358Z,3.13
2018-12-26T11:14:20.381Z,2.40
2018-12-26T11:16:48.826Z,2.93
2018-12-26T11:19:17.109Z,3.00
2018-12-26T11:21:45.597Z,3.30
2018-12-26T11:24:13.812Z,3.13
2018-12-26T11:26:42.036Z,10.67
2018-12-26T11:29:18.349Z,5.80
2018-12-26T11:31:40.207Z,2.93
2018-12-26T11:34:08.517Z,2.97
2018-12-26T11:36:36.861Z,3.67
2018-12-26T11:39:06.050Z,2.27
2018-12-26T11:41:34.278Z,2.37
2018-12-26T11:44:03.318Z,2.93
2018-12-26T11:46:31.487Z,2.80
2018-12-26T11:48:59.921Z,4.50
2018-12-26T11:51:28.025Z,4.00
2018-12-26T11:53:56.549Z,4.37
2018-12-26T11:56:24.707Z,5.17
2018-12-26T11:58:53.097Z,11.07
2018-12-26T12:01:21.424Z,3.63
2018-12-26T12:03:49.553Z,2.83
2018-12-26T12:06:17.833Z,3.10
2018-12-26T12:08:46.035Z,1.83
2018-12-26T12:11:14.145Z,1.90
2018-12-26T12:13:42.367Z,3.47
2018-12-26T12:16:10.995Z,3.67
2018-12-26T12:18:39.193Z,2.43
2018-12-26T12:21:07.322Z,1.80
2018-12-26T12:23:35.452Z,4.40
2018-12-26T12:26:04.824Z,3.00
2018-12-26T12:28:33.298Z,3.70
2018-12-26T12:31:01.356Z,2.63
2018-12-26T12:33:29.558Z,3.70
2018-12-26T12:35:57.680Z,3.17
2018-12-26T12:38:25.891Z,4.93
2018-12-26T12:40:53.971Z,2.50
2018-12-26T12:43:22.260Z,1.90
2018-12-26T12:45:50.805Z,2.23
2018-12-26T12:48:18.917Z,1.67
2018-12-26T12:50:47.176Z,3.23
2018-12-26T12:53:16.204Z,4.00
2018-12-26T12:55:45.551Z,2.07
2018-12-26T12:58:13.857Z,2.40
2018-12-26T13:00:42.069Z,1.73
2018-12-26T13:03:10.585Z,3.13
2018-12-26T13:05:39.316Z,2.67
2018-12-26T13:08:07.662Z,2.67
2018-12-26T13:10:35.805Z,2.23
2018-12-26T13:13:04.013Z,2.23
2018-12-26T13:15:32.206Z,4.57
2018-12-26T13:18:01.372Z,2.60
2018-12-26T13:20:29.543Z,1.90
2018-12-26T13:22:58.130Z,4.00
2018-12-26T13:25:26.253Z,2.77
2018-12-26T13:27:54.657Z,3.43
2018-12-26T13:30:24.668Z,3.43
2018-12-26T13:32:53.192Z,3.80
2018-12-26T13:35:29.817Z,2.60
2018-12-26T13:37:58.349Z,3.03
2018-12-26T13:40:26.628Z,4.00
2018-12-26T13:42:54.782Z,3.33
2018-12-26T13:45:23.080Z,4.20
2018-12-26T13:47:51.378Z,4.83
2018-12-26T13:50:19.611Z,4.13
2018-12-26T13:52:47.825Z,3.50
2018-12-26T13:55:16.044Z,4.80
2018-12-26T13:57:46.142Z,4.33
2018-12-26T14:00:14.426Z,3.80
2018-12-26T14:02:42.876Z,5.80
2018-12-26T14:05:11.071Z,6.53
2018-12-26T14:07:39.224Z,5.60
2018-12-26T14:10:08.948Z,7.10
2018-12-26T14:12:38.313Z,4.63
2018-12-26T14:15:07.545Z,5.27
2018-12-26T14:17:35.818Z,5.60
2018-12-26T14:20:04.322Z,3.60
2018-12-26T14:22:32.844Z,4.83
2018-12-26T14:25:01.000Z,4.10
2018-12-26T14:27:29.775Z,4.17
2018-12-26T14:29:57.976Z,4.33
2018-12-26T14:32:26.493Z,4.50
2018-12-26T14:34:54.703Z,4.73
2018-12-26T14:37:25.288Z,3.73
2018-12-26T14:39:53.452Z,3.97
2018-12-26T14:42:21.682Z,3.83
2018-12-26T14:44:50.055Z,2.87
2018-12-26T14:47:18.284Z,3.53
2018-12-26T14:49:46.593Z,3.10
2018-12-26T14:52:16.999Z,6.37
2018-12-26T14:54:45.487Z,5.17
2018-12-26T14:57:13.746Z,3.37
2018-12-26T14:59:42.559Z,4.70
2018-12-26T15:02:11.119Z,5.20
2018-12-26T15:04:39.328Z,5.13
2018-12-26T15:07:07.489Z,4.20
2018-12-26T15:09:37.653Z,7.70
2018-12-26T15:12:05.867Z,5.70
2018-12-26T15:14:34.004Z,5.47
2018-12-26T15:17:02.241Z,5.43
2018-12-26T15:19:31.205Z,7.20
2018-12-26T15:21:59.450Z,10.30
2018-12-26T15:24:27.597Z,5.70
2018-12-26T15:26:55.808Z,6.07
2018-12-26T15:29:28.675Z,8.20
2018-12-26T15:31:56.960Z,7.20
2018-12-26T15:34:25.447Z,8.30
2018-12-26T15:36:53.775Z,7.97
2018-12-26T15:39:21.833Z,9.07
2018-12-26T15:41:50.873Z,6.13
2018-12-26T15:44:18.951Z,7.67
2018-12-26T15:46:47.114Z,5.27
2018-12-26T15:49:15.301Z,5.30
2018-12-26T15:51:43.713Z,10.37
2018-12-26T15:54:11.998Z,10.03
2018-12-26T15:56:40.546Z,11.80
2018-12-26T15:59:08.656Z,8.90
2018-12-26T16:01:37.211Z,11.93
2018-12-26T16:04:05.337Z,10.90
2018-12-26T16:06:33.924Z,11.23
2018-12-26T16:09:02.782Z,14.87
2018-12-26T16:11:31.277Z,13.93
2018-12-26T16:13:59.461Z,16.50
2018-12-26T16:16:27.713Z,9.47
2018-12-26T16:18:55.925Z,11.63
2018-12-26T16:21:25.850Z,11.50
2018-12-26T16:23:53.987Z,14.13
2018-12-26T16:26:22.078Z,11.80
2018-12-26T16:28:50.684Z,12.30
2018-12-26T16:31:18.993Z,11.87
2018-12-26T16:33:48.952Z,17.60
2018-12-26T16:36:17.065Z,13.23
2018-12-26T16:38:45.205Z,11.57
2018-12-26T16:41:13.595Z,13.93
2018-12-26T16:43:41.765Z,9.60
2018-12-26T16:46:10.048Z,14.73
2018-12-26T16:48:38.297Z,25.27
2018-12-26T16:51:06.657Z,30.17
2018-12-26T16:53:34.808Z,39.50
2018-12-26T16:56:03.345Z,38.87
2018-12-26T16:58:31.557Z,43.60
2018-12-26T17:00:59.793Z,43.10
2018-12-26T17:03:29.349Z,39.67
2018-12-26T17:05:57.620Z,37.23
2018-12-26T17:08:25.888Z,39.37
2018-12-26T17:10:54.000Z,37.67
2018-12-26T17:13:22.230Z,42.20
2018-12-26T17:15:50.353Z,52.57
2018-12-26T17:18:18.589Z,50.90
2018-12-26T17:20:46.829Z,55.57
2018-12-26T17:23:15.361Z,56.63
2018-12-26T17:25:43.910Z,49.27
2018-12-26T17:28:13.442Z,51.47
2018-12-26T17:30:41.602Z,52.30
2018-12-26T17:33:10.033Z,38.43
2018-12-26T17:35:39.537Z,39.70
2018-12-26T17:38:09.455Z,22.37
2018-12-26T17:40:38.744Z,20.50
2018-12-26T17:43:07.241Z,20.17
2018-12-26T17:45:36.233Z,16.70
2018-12-26T17:48:04.312Z,15.63
2018-12-26T17:51:03.084Z,14.20
2018-12-26T17:53:58.509Z,13.40
2018-12-26T17:56:44.438Z,22.90
2018-12-26T17:59:37.696Z,24.77
2018-12-26T18:02:11.173Z,56.40
2018-12-26T18:04:39.393Z,75.13
2018-12-26T18:07:07.528Z,73.47
2018-12-26T18:09:35.770Z,61.00
2018-12-26T18:12:11.830Z,43.13
2018-12-26T18:14:34.995Z,41.43
2018-12-26T18:17:03.359Z,43.10
2018-12-26T18:19:32.455Z,45.83
2018-12-26T18:22:03.249Z,51.47
2018-12-26T18:24:31.610Z,50.37
2018-12-26T18:27:01.056Z,45.33
2018-12-26T18:29:30.729Z,40.87
2018-12-26T18:31:59.879Z,40.47
2018-12-26T18:34:30.942Z,42.87
2018-12-26T18:36:59.311Z,37.67
2018-12-26T18:39:27.565Z,36.27
2018-12-26T18:41:58.310Z,37.20
2018-12-26T18:44:26.629Z,36.90
2018-12-26T18:46:55.076Z,42.53
2018-12-26T18:49:23.723Z,39.23
2018-12-26T18:51:51.918Z,47.70
2018-12-26T18:54:20.089Z,50.07
2018-12-26T18:56:48.273Z,41.97
2018-12-26T18:59:21.815Z,34.87
2018-12-26T19:01:53.288Z,39.10
2018-12-26T19:04:21.391Z,11.53
2018-12-26T19:06:49.714Z,6.93
2018-12-26T19:09:21.373Z,9.27
2018-12-26T19:11:50.983Z,10.03
2018-12-26T19:14:19.282Z,9.33
2018-12-26T19:16:49.119Z,21.27
2018-12-26T19:19:21.760Z,19.97
2018-12-26T19:21:50.014Z,14.37
2018-12-26T19:24:19.133Z,9.57
2018-12-26T19:26:49.320Z,14.60
2018-12-26T19:29:17.605Z,14.27
2018-12-26T19:31:45.797Z,22.33
2018-12-26T19:34:14.048Z,62.50
2018-12-26T19:36:42.186Z,97.43
2018-12-26T19:39:10.523Z,70.90
2018-12-26T19:41:38.592Z,87.43
2018-12-26T19:44:06.834Z,87.40
2018-12-26T19:46:36.014Z,72.37
2018-12-26T19:49:04.436Z,69.33
2018-12-26T19:51:32.636Z,63.13
2018-12-26T19:54:00.834Z,63.97
2018-12-26T19:56:31.209Z,71.50
2018-12-26T19:58:59.430Z,69.30
2018-12-26T20:01:28.001Z,68.67
2018-12-26T20:03:56.810Z,62.13
2018-12-26T20:06:25.356Z,56.60
2018-12-26T20:08:53.540Z,53.03
2018-12-26T20:11:21.854Z,61.13
2018-12-26T20:13:50.068Z,52.50
2018-12-26T20:16:18.292Z,44.90
2018-12-26T20:18:49.288Z,49.50
2018-12-26T20:21:17.542Z,46.40
2018-12-26T20:23:45.804Z,49.40
2018-12-26T20:26:13.986Z,54.27
2018-12-26T20:28:42.170Z,52.40
2018-12-26T20:31:11.455Z,46.73
2018-12-26T20:33:39.823Z,27.80
2018-12-26T20:36:09.581Z,24.07
2018-12-26T20:38:41.873Z,20.13
2018-12-26T20:41:10.068Z,26.93
2018-12-26T20:43:38.343Z,13.97
2018-12-26T20:46:06.485Z,14.33
2018-12-26T20:48:34.925Z,13.73
2018-12-26T20:51:03.120Z,14.00
2018-12-26T20:53:31.402Z,31.63
2018-12-26T20:56:04.656Z,76.20
2018-12-26T20:58:33.012Z,50.70
2018-12-26T21:01:03.971Z,38.30
2018-12-26T21:03:34.449Z,42.57
2018-12-26T21:06:03.261Z,45.50
2018-12-26T21:08:31.490Z,40.10
2018-12-26T21:10:59.768Z,47.23
2018-12-26T21:13:28.053Z,30.57
2018-12-26T21:15:56.745Z,40.83
2018-12-26T21:18:27.115Z,34.17
2018-12-26T21:20:55.611Z,35.43
2018-12-26T21:23:24.047Z,52.53
2018-12-26T21:25:59.680Z,58.87
2018-12-26T21:28:27.888Z,29.00
2018-12-26T21:30:56.156Z,39.30
2018-12-26T21:33:28.154Z,26.23
2018-12-26T21:36:03.116Z,26.70
2018-12-26T21:38:31.716Z,27.17
2018-12-26T21:40:59.889Z,21.90
2018-12-26T21:43:28.925Z,22.23
2018-12-26T21:49:44.887Z,23.67
2018-12-26T21:52:15.239Z,24.00
2018-12-26T21:54:44.401Z,21.23
2018-12-26T21:57:14.046Z,27.13
2018-12-26T21:59:42.250Z,33.23
2018-12-26T22:02:10.402Z,25.53
2018-12-26T22:04:38.986Z,28.53
2018-12-26T22:07:07.373Z,23.03
2018-12-26T22:09:35.511Z,27.17
2018-12-26T22:12:03.860Z,30.27
2018-12-26T22:14:32.092Z,39.73
2018-12-26T22:17:03.280Z,46.63
2018-12-26T22:19:31.505Z,43.53
2018-12-26T22:22:00.008Z,50.90
2018-12-26T22:24:28.187Z,57.37
2018-12-26T22:26:56.343Z,88.80
2018-12-26T22:29:25.645Z,92.20
2018-12-26T22:31:53.750Z,97.57
2018-12-26T22:34:22.108Z,91.40
2018-12-26T22:36:50.285Z,82.13
2018-12-26T22:39:18.720Z,96.30
2018-12-26T22:41:46.909Z,100.63
2018-12-26T22:44:15.572Z,102.33
2018-12-26T22:46:44.035Z,101.87
2018-12-26T22:49:13.118Z,101.63
2018-12-26T22:51:42.025Z,96.53
2018-12-26T22:54:10.526Z,82.33
2018-12-26T22:56:38.738Z,55.83
2018-12-26T22:59:06.783Z,53.73
2018-12-26T23:01:36.146Z,57.40
2018-12-26T23:04:05.456Z,51.63
2018-12-26T23:06:33.689Z,56.47
2018-12-26T23:09:01.974Z,55.50
2018-12-26T23:11:31.233Z,52.37
2018-12-26T23:13:59.351Z,54.30
2018-12-26T23:16:27.601Z,51.83
2018-12-26T23:18:55.789Z,56.57
2018-12-26T23:21:24.060Z,54.03
2018-12-26T23:23:53.144Z,50.10
2018-12-26T23:26:21.304Z,57.60
2018-12-26T23:28:49.559Z,68.43
2018-12-26T23:31:18.219Z,78.53
2018-12-26T23:33:46.411Z,83.60
2018-12-26T23:36:14.577Z,90.67
2018-12-26T23:38:42.764Z,90.73
2018-12-26T23:41:10.904Z,57.63
2018-12-26T23:43:39.094Z,46.63
2018-12-26T23:46:07.237Z,42.00
2018-12-26T23:48:35.388Z,46.53
2018-12-26T23:51:03.564Z,45.63
2018-12-26T23:53:33.131Z,42.87
2018-12-26T23:56:02.880Z,43.27
2018-12-26T23:58:30.964Z,47.67
